sensor_id;sensor_type;location;lat;lon;timestamp;P1;durP1;ratioP1;P2;durP2;ratioP2
71679;SDS011;59512;42.662;23.254;2024-03-23T00:55:50;13.35;;;5.85;;
71679;SDS011;59512;42.662;23.254;2024-03-23T00:58:19;9.52;;;4.57;;
71679;SDS011;59512;42.662;23.254;2024-03-23T01:00:45;14.40;;;7.20;;
71679;SDS011;59512;42.662;23.254;2024-03-23T01:03:10;10.48;;;5.32;;
71679;SDS011;59512;42.662;23.254;2024-03-23T01:05:35;10.37;;;4.60;;
71679;SDS011;59512;42.662;23.254;2024-03-23T01:08:01;9.27;;;4.33;;
71679;SDS011;59512;42.662;23.254;2024-03-23T01:10:27;11.93;;;5.20;;
71679;SDS011;59512;42.662;23.254;2024-03-23T01:12:52;12.77;;;5.47;;
71679;SDS011;59512;42.662;23.254;2024-03-23T01:15:18;13.03;;;5.37;;
71679;SDS011;59512;42.662;23.254;2024-03-23T01:17:43;13.07;;;5.70;;
71679;SDS011;59512;42.662;23.254;2024-03-23T01:20:08;12.03;;;5.70;;
71679;SDS011;59512;42.662;23.254;2024-03-23T01:22:34;11.40;;;5.18;;
71679;SDS011;59512;42.662;23.254;2024-03-23T01:25:01;13.70;;;5.93;;
71679;SDS011;59512;42.662;23.254;2024-03-23T01:27:27;12.40;;;5.90;;
71679;SDS011;59512;42.662;23.254;2024-03-23T01:29:53;12.38;;;5.70;;
71679;SDS011;59512;42.662;23.254;2024-03-23T01:32:19;12.32;;;5.68;;
71679;SDS011;59512;42.662;23.254;2024-03-23T01:34:45;12.93;;;5.40;;
71679;SDS011;59512;42.662;23.254;2024-03-23T01:37:10;11.23;;;4.97;;
71679;SDS011;59512;42.662;23.254;2024-03-23T01:39:35;10.33;;;5.03;;
71679;SDS011;59512;42.662;23.254;2024-03-23T01:42:01;11.38;;;5.53;;
71679;SDS011;59512;42.662;23.254;2024-03-23T01:44:26;13.13;;;5.67;;
71679;SDS011;59512;42.662;23.254;2024-03-23T01:46:52;10.17;;;5.37;;
71679;SDS011;59512;42.662;23.254;2024-03-23T01:49:17;12.47;;;4.73;;
71679;SDS011;59512;42.662;23.254;2024-03-23T01:51:43;10.52;;;4.65;;
71679;SDS011;59512;42.662;23.254;2024-03-23T01:54:09;11.83;;;5.67;;
71679;SDS011;59512;42.662;23.254;2024-03-23T01:56:34;12.10;;;5.20;;
71679;SDS011;59512;42.662;23.254;2024-03-23T01:59:04;10.60;;;5.30;;
71679;SDS011;59512;42.662;23.254;2024-03-23T02:01:30;12.30;;;5.68;;
71679;SDS011;59512;42.662;23.254;2024-03-23T02:03:57;13.07;;;6.07;;
71679;SDS011;59512;42.662;23.254;2024-03-23T02:06:23;13.20;;;5.90;;
71679;SDS011;59512;42.662;23.254;2024-03-23T02:08:49;13.02;;;6.10;;
71679;SDS011;59512;42.662;23.254;2024-03-23T02:11:15;15.98;;;7.10;;
71679;SDS011;59512;42.662;23.254;2024-03-23T02:13:40;13.80;;;6.45;;
71679;SDS011;59512;42.662;23.254;2024-03-23T02:16:06;17.57;;;8.47;;
71679;SDS011;59512;42.662;23.254;2024-03-23T02:18:32;16.97;;;7.30;;
71679;SDS011;59512;42.662;23.254;2024-03-23T02:20:57;13.15;;;6.57;;
71679;SDS011;59512;42.662;23.254;2024-03-23T02:23:23;20.17;;;9.30;;
71679;SDS011;59512;42.662;23.254;2024-03-23T02:25:49;18.20;;;9.25;;
71679;SDS011;59512;42.662;23.254;2024-03-23T02:28:19;22.75;;;11.07;;
71679;SDS011;59512;42.662;23.254;2024-03-23T02:30:45;20.55;;;11.00;;
71679;SDS011;59512;42.662;23.254;2024-03-23T02:33:11;20.03;;;10.50;;
71679;SDS011;59512;42.662;23.254;2024-03-23T02:35:36;16.27;;;8.47;;
71679;SDS011;59512;42.662;23.254;2024-03-23T02:38:02;13.90;;;7.67;;
71679;SDS011;59512;42.662;23.254;2024-03-23T02:40:27;18.03;;;7.33;;
71679;SDS011;59512;42.662;23.254;2024-03-23T02:42:53;16.55;;;8.88;;
71679;SDS011;59512;42.662;23.254;2024-03-23T02:45:18;15.40;;;7.33;;
71679;SDS011;59512;42.662;23.254;2024-03-23T02:47:45;16.87;;;7.47;;
71679;SDS011;59512;42.662;23.254;2024-03-23T02:50:16;16.25;;;8.07;;
71679;SDS011;59512;42.662;23.254;2024-03-23T02:52:42;18.33;;;9.00;;
71679;SDS011;59512;42.662;23.254;2024-03-23T02:55:07;18.13;;;8.83;;
71679;SDS011;59512;42.662;23.254;2024-03-23T02:57:33;18.20;;;9.70;;
71679;SDS011;59512;42.662;23.254;2024-03-23T02:59:58;19.20;;;10.07;;
71679;SDS011;59512;42.662;23.254;2024-03-23T03:02:24;19.23;;;9.63;;
71679;SDS011;59512;42.662;23.254;2024-03-23T03:04:49;17.02;;;8.95;;
71679;SDS011;59512;42.662;23.254;2024-03-23T03:07:14;18.48;;;8.95;;
71679;SDS011;59512;42.662;23.254;2024-03-23T03:09:40;16.07;;;8.97;;
71679;SDS011;59512;42.662;23.254;2024-03-23T03:12:08;16.27;;;8.30;;
71679;SDS011;59512;42.662;23.254;2024-03-23T03:14:34;13.63;;;6.85;;
71679;SDS011;59512;42.662;23.254;2024-03-23T03:16:59;14.63;;;7.53;;
71679;SDS011;59512;42.662;23.254;2024-03-23T03:19:25;13.23;;;6.67;;
71679;SDS011;59512;42.662;23.254;2024-03-23T03:21:51;14.57;;;6.38;;
71679;SDS011;59512;42.662;23.254;2024-03-23T03:24:16;10.87;;;5.47;;
71679;SDS011;59512;42.662;23.254;2024-03-23T03:26:42;13.53;;;6.10;;
71679;SDS011;59512;42.662;23.254;2024-03-23T03:29:08;14.98;;;6.80;;
71679;SDS011;59512;42.662;23.254;2024-03-23T03:31:34;14.40;;;7.05;;
71679;SDS011;59512;42.662;23.254;2024-03-23T03:33:59;12.70;;;6.10;;
71679;SDS011;59512;42.662;23.254;2024-03-23T03:36:25;12.83;;;6.27;;
71679;SDS011;59512;42.662;23.254;2024-03-23T03:38:51;14.60;;;7.30;;
71679;SDS011;59512;42.662;23.254;2024-03-23T03:41:16;12.83;;;6.80;;
71679;SDS011;59512;42.662;23.254;2024-03-23T03:43:43;12.73;;;6.18;;
71679;SDS011;59512;42.662;23.254;2024-03-23T03:46:10;11.83;;;6.27;;
71679;SDS011;59512;42.662;23.254;2024-03-23T03:48:36;12.75;;;6.07;;
71679;SDS011;59512;42.662;23.254;2024-03-23T03:51:02;14.05;;;7.35;;
71679;SDS011;59512;42.662;23.254;2024-03-23T03:53:27;14.67;;;7.23;;
71679;SDS011;59512;42.662;23.254;2024-03-23T03:55:53;15.68;;;8.00;;
71679;SDS011;59512;42.662;23.254;2024-03-23T03:58:18;15.15;;;7.75;;
71679;SDS011;59512;42.662;23.254;2024-03-23T04:00:43;15.20;;;7.57;;
71679;SDS011;59512;42.662;23.254;2024-03-23T04:03:09;15.67;;;8.50;;
71679;SDS011;59512;42.662;23.254;2024-03-23T04:05:35;17.92;;;8.55;;
71679;SDS011;59512;42.662;23.254;2024-03-23T04:08:01;15.38;;;7.88;;
71679;SDS011;59512;42.662;23.254;2024-03-23T04:10:27;16.00;;;8.68;;
71679;SDS011;59512;42.662;23.254;2024-03-23T04:12:52;14.63;;;7.90;;
71679;SDS011;59512;42.662;23.254;2024-03-23T04:15:19;14.70;;;8.07;;
71679;SDS011;59512;42.662;23.254;2024-03-23T04:17:45;15.63;;;8.38;;
71679;SDS011;59512;42.662;23.254;2024-03-23T04:20:10;14.50;;;7.78;;
71679;SDS011;59512;42.662;23.254;2024-03-23T04:22:36;15.02;;;8.63;;
71679;SDS011;59512;42.662;23.254;2024-03-23T04:25:02;15.95;;;8.15;;
71679;SDS011;59512;42.662;23.254;2024-03-23T04:27:35;15.95;;;7.93;;
71679;SDS011;59512;42.662;23.254;2024-03-23T04:30:00;16.00;;;8.10;;
71679;SDS011;59512;42.662;23.254;2024-03-23T04:32:27;13.67;;;7.13;;
71679;SDS011;59512;42.662;23.254;2024-03-23T04:34:52;18.20;;;7.00;;
71679;SDS011;59512;42.662;23.254;2024-03-23T04:37:18;17.35;;;7.68;;
71679;SDS011;59512;42.662;23.254;2024-03-23T04:39:44;15.17;;;7.57;;
71679;SDS011;59512;42.662;23.254;2024-03-23T04:42:10;16.33;;;8.18;;
71679;SDS011;59512;42.662;23.254;2024-03-23T04:44:35;12.70;;;6.70;;
71679;SDS011;59512;42.662;23.254;2024-03-23T04:47:00;15.97;;;7.67;;
71679;SDS011;59512;42.662;23.254;2024-03-23T04:49:26;15.97;;;7.90;;
71679;SDS011;59512;42.662;23.254;2024-03-23T04:51:51;13.67;;;7.13;;
71679;SDS011;59512;42.662;23.254;2024-03-23T04:57:06;12.40;;;6.50;;
71679;SDS011;59512;42.662;23.254;2024-03-23T04:59:32;13.45;;;7.15;;
71679;SDS011;59512;42.662;23.254;2024-03-23T05:01:58;12.32;;;6.85;;
71679;SDS011;59512;42.662;23.254;2024-03-23T05:04:23;12.00;;;6.70;;
71679;SDS011;59512;42.662;23.254;2024-03-23T05:06:49;11.50;;;6.13;;
71679;SDS011;59512;42.662;23.254;2024-03-23T05:09:15;16.13;;;7.50;;
71679;SDS011;59512;42.662;23.254;2024-03-23T05:11:40;14.67;;;7.33;;
71679;SDS011;59512;42.662;23.254;2024-03-23T05:14:10;15.73;;;8.32;;
71679;SDS011;59512;42.662;23.254;2024-03-23T05:16:38;16.02;;;8.65;;
71679;SDS011;59512;42.662;23.254;2024-03-23T05:19:03;41.53;;;22.63;;
71679;SDS011;59512;42.662;23.254;2024-03-23T05:21:28;17.73;;;9.40;;
71679;SDS011;59512;42.662;23.254;2024-03-23T05:23:54;14.47;;;8.13;;
71679;SDS011;59512;42.662;23.254;2024-03-23T05:26:19;16.77;;;8.82;;
71679;SDS011;59512;42.662;23.254;2024-03-23T05:28:55;14.77;;;9.23;;
71679;SDS011;59512;42.662;23.254;2024-03-23T05:31:24;17.02;;;9.77;;
71679;SDS011;59512;42.662;23.254;2024-03-23T05:33:50;19.48;;;10.27;;
71679;SDS011;59512;42.662;23.254;2024-03-23T05:36:15;74.80;;;25.27;;
71679;SDS011;59512;42.662;23.254;2024-03-23T05:38:41;33.42;;;14.80;;
71679;SDS011;59512;42.662;23.254;2024-03-23T05:41:07;28.33;;;13.53;;
71679;SDS011;59512;42.662;23.254;2024-03-23T05:43:32;23.57;;;13.20;;
71679;SDS011;59512;42.662;23.254;2024-03-23T05:45:58;27.37;;;14.60;;
71679;SDS011;59512;42.662;23.254;2024-03-23T05:48:27;28.70;;;14.18;;
71679;SDS011;59512;42.662;23.254;2024-03-23T05:50:55;24.13;;;12.38;;
71679;SDS011;59512;42.662;23.254;2024-03-23T05:53:21;25.00;;;14.33;;
71679;SDS011;59512;42.662;23.254;2024-03-23T05:55:46;25.70;;;14.07;;
71679;SDS011;59512;42.662;23.254;2024-03-23T05:58:15;27.73;;;14.20;;
71679;SDS011;59512;42.662;23.254;2024-03-23T06:00:41;29.60;;;15.00;;
71679;SDS011;59512;42.662;23.254;2024-03-23T06:03:07;29.10;;;15.07;;
71679;SDS011;59512;42.662;23.254;2024-03-23T06:05:33;22.87;;;13.60;;
71679;SDS011;59512;42.662;23.254;2024-03-23T06:07:58;25.07;;;13.77;;
71679;SDS011;59512;42.662;23.254;2024-03-23T06:10:23;24.15;;;13.27;;
71679;SDS011;59512;42.662;23.254;2024-03-23T06:12:49;23.33;;;13.57;;
71679;SDS011;59512;42.662;23.254;2024-03-23T06:15:17;24.73;;;14.15;;
71679;SDS011;59512;42.662;23.254;2024-03-23T06:17:46;27.33;;;13.80;;
71679;SDS011;59512;42.662;23.254;2024-03-23T06:20:12;23.52;;;13.38;;
71679;SDS011;59512;42.662;23.254;2024-03-23T06:22:37;27.00;;;14.27;;
71679;SDS011;59512;42.662;23.254;2024-03-23T06:25:03;24.80;;;13.15;;
71679;SDS011;59512;42.662;23.254;2024-03-23T06:27:29;26.30;;;13.77;;
71679;SDS011;59512;42.662;23.254;2024-03-23T06:29:54;25.07;;;12.80;;
71679;SDS011;59512;42.662;23.254;2024-03-23T06:32:20;21.10;;;12.23;;
71679;SDS011;59512;42.662;23.254;2024-03-23T06:34:46;24.63;;;13.07;;
71679;SDS011;59512;42.662;23.254;2024-03-23T06:37:11;22.20;;;12.75;;
71679;SDS011;59512;42.662;23.254;2024-03-23T06:39:37;23.30;;;12.70;;
71679;SDS011;59512;42.662;23.254;2024-03-23T06:42:03;22.98;;;12.15;;
71679;SDS011;59512;42.662;23.254;2024-03-23T06:44:29;25.30;;;13.18;;
71679;SDS011;59512;42.662;23.254;2024-03-23T06:46:55;25.90;;;13.68;;
71679;SDS011;59512;42.662;23.254;2024-03-23T06:49:23;21.92;;;12.13;;
71679;SDS011;59512;42.662;23.254;2024-03-23T06:51:49;22.33;;;12.50;;
71679;SDS011;59512;42.662;23.254;2024-03-23T06:54:16;19.05;;;12.20;;
71679;SDS011;59512;42.662;23.254;2024-03-23T06:56:41;20.30;;;12.80;;
71679;SDS011;59512;42.662;23.254;2024-03-23T06:59:07;24.13;;;12.53;;
71679;SDS011;59512;42.662;23.254;2024-03-23T07:01:32;24.30;;;12.10;;
71679;SDS011;59512;42.662;23.254;2024-03-23T07:03:58;21.30;;;12.43;;
71679;SDS011;59512;42.662;23.254;2024-03-23T07:06:23;21.37;;;12.40;;
71679;SDS011;59512;42.662;23.254;2024-03-23T07:08:48;24.40;;;12.65;;
71679;SDS011;59512;42.662;23.254;2024-03-23T07:11:20;23.13;;;12.60;;
71679;SDS011;59512;42.662;23.254;2024-03-23T07:13:49;23.70;;;13.73;;
71679;SDS011;59512;42.662;23.254;2024-03-23T07:16:15;21.63;;;12.90;;
71679;SDS011;59512;42.662;23.254;2024-03-23T07:18:41;24.15;;;13.32;;
71679;SDS011;59512;42.662;23.254;2024-03-23T07:21:06;25.27;;;14.23;;
71679;SDS011;59512;42.662;23.254;2024-03-23T07:23:32;25.20;;;14.07;;
71679;SDS011;59512;42.662;23.254;2024-03-23T07:28:23;25.17;;;14.43;;
71679;SDS011;59512;42.662;23.254;2024-03-23T07:31:00;20.40;;;12.10;;
71679;SDS011;59512;42.662;23.254;2024-03-23T07:33:29;24.23;;;12.73;;
71679;SDS011;59512;42.662;23.254;2024-03-23T07:35:55;22.30;;;13.03;;
71679;SDS011;59512;42.662;23.254;2024-03-23T07:38:21;24.13;;;13.20;;
71679;SDS011;59512;42.662;23.254;2024-03-23T07:40:46;21.90;;;12.70;;
71679;SDS011;59512;42.662;23.254;2024-03-23T07:43:12;21.67;;;12.00;;
71679;SDS011;59512;42.662;23.254;2024-03-23T07:45:37;22.33;;;12.30;;
71679;SDS011;59512;42.662;23.254;2024-03-23T07:48:03;23.10;;;11.77;;
71679;SDS011;59512;42.662;23.254;2024-03-23T07:50:29;24.02;;;12.48;;
71679;SDS011;59512;42.662;23.254;2024-03-23T07:52:55;24.57;;;12.73;;
71679;SDS011;59512;42.662;23.254;2024-03-23T07:55:20;21.50;;;12.75;;
71679;SDS011;59512;42.662;23.254;2024-03-23T07:57:46;21.80;;;13.30;;
71679;SDS011;59512;42.662;23.254;2024-03-23T08:00:12;21.70;;;12.03;;
71679;SDS011;59512;42.662;23.254;2024-03-23T08:02:47;19.27;;;12.15;;
71679;SDS011;59512;42.662;23.254;2024-03-23T08:05:41;20.65;;;12.07;;
71679;SDS011;59512;42.662;23.254;2024-03-23T08:08:17;19.92;;;11.98;;
71679;SDS011;59512;42.662;23.254;2024-03-23T08:11:41;22.53;;;13.13;;
71679;SDS011;59512;42.662;23.254;2024-03-23T08:14:09;20.13;;;12.10;;
71679;SDS011;59512;42.662;23.254;2024-03-23T08:16:37;23.40;;;12.50;;
71679;SDS011;59512;42.662;23.254;2024-03-23T08:19:03;24.37;;;12.83;;
71679;SDS011;59512;42.662;23.254;2024-03-23T08:21:28;22.42;;;13.05;;
71679;SDS011;59512;42.662;23.254;2024-03-23T08:23:54;23.07;;;12.77;;
71679;SDS011;59512;42.662;23.254;2024-03-23T08:26:22;23.63;;;13.07;;
71679;SDS011;59512;42.662;23.254;2024-03-23T08:28:47;29.08;;;13.18;;
71679;SDS011;59512;42.662;23.254;2024-03-23T08:31:13;23.75;;;13.05;;
71679;SDS011;59512;42.662;23.254;2024-03-23T08:33:44;21.48;;;12.90;;
71679;SDS011;59512;42.662;23.254;2024-03-23T08:36:10;24.53;;;13.03;;
71679;SDS011;59512;42.662;23.254;2024-03-23T08:38:37;22.35;;;12.57;;
71679;SDS011;59512;42.662;23.254;2024-03-23T08:41:07;22.85;;;13.30;;
71679;SDS011;59512;42.662;23.254;2024-03-23T08:43:35;26.52;;;12.77;;
71679;SDS011;59512;42.662;23.254;2024-03-23T08:46:04;22.13;;;13.20;;
71679;SDS011;59512;42.662;23.254;2024-03-23T08:48:37;24.60;;;13.50;;
71679;SDS011;59512;42.662;23.254;2024-03-23T08:51:05;29.63;;;13.38;;
71679;SDS011;59512;42.662;23.254;2024-03-23T08:53:31;22.55;;;12.80;;
71679;SDS011;59512;42.662;23.254;2024-03-23T08:55:57;25.98;;;13.43;;
71679;SDS011;59512;42.662;23.254;2024-03-23T08:58:24;25.10;;;12.57;;
71679;SDS011;59512;42.662;23.254;2024-03-23T09:00:53;36.30;;;13.02;;
71679;SDS011;59512;42.662;23.254;2024-03-23T09:03:22;23.40;;;12.10;;
71679;SDS011;59512;42.662;23.254;2024-03-23T09:05:48;27.65;;;13.15;;
71679;SDS011;59512;42.662;23.254;2024-03-23T09:08:14;21.83;;;12.45;;
71679;SDS011;59512;42.662;23.254;2024-03-23T09:10:39;22.80;;;12.83;;
71679;SDS011;59512;42.662;23.254;2024-03-23T09:13:05;23.55;;;12.52;;
71679;SDS011;59512;42.662;23.254;2024-03-23T09:15:32;20.10;;;12.10;;
71679;SDS011;59512;42.662;23.254;2024-03-23T09:17:59;20.63;;;12.90;;
71679;SDS011;59512;42.662;23.254;2024-03-23T09:20:25;21.07;;;12.33;;
71679;SDS011;59512;42.662;23.254;2024-03-23T09:22:50;23.52;;;11.77;;
71679;SDS011;59512;42.662;23.254;2024-03-23T09:25:15;24.65;;;12.07;;
71679;SDS011;59512;42.662;23.254;2024-03-23T09:27:41;22.30;;;12.10;;
71679;SDS011;59512;42.662;23.254;2024-03-23T09:30:06;28.03;;;15.20;;
71679;SDS011;59512;42.662;23.254;2024-03-23T09:32:32;20.60;;;11.55;;
71679;SDS011;59512;42.662;23.254;2024-03-23T09:34:57;22.03;;;12.30;;
71679;SDS011;59512;42.662;23.254;2024-03-23T09:37:23;22.27;;;12.00;;
71679;SDS011;59512;42.662;23.254;2024-03-23T09:39:48;19.53;;;11.30;;
71679;SDS011;59512;42.662;23.254;2024-03-23T09:42:13;30.00;;;14.37;;
71679;SDS011;59512;42.662;23.254;2024-03-23T09:44:39;26.98;;;12.77;;
71679;SDS011;59512;42.662;23.254;2024-03-23T09:47:05;20.23;;;12.13;;
71679;SDS011;59512;42.662;23.254;2024-03-23T09:49:31;20.57;;;11.33;;
71679;SDS011;59512;42.662;23.254;2024-03-23T09:51:57;22.13;;;11.60;;
71679;SDS011;59512;42.662;23.254;2024-03-23T09:54:23;20.57;;;11.33;;
71679;SDS011;59512;42.662;23.254;2024-03-23T09:56:48;19.15;;;11.18;;
71679;SDS011;59512;42.662;23.254;2024-03-23T09:59:13;19.73;;;11.50;;
71679;SDS011;59512;42.662;23.254;2024-03-23T10:01:39;19.80;;;10.83;;
71679;SDS011;59512;42.662;23.254;2024-03-23T10:04:04;20.17;;;10.23;;
71679;SDS011;59512;42.662;23.254;2024-03-23T10:06:30;18.75;;;11.52;;
71679;SDS011;59512;42.662;23.254;2024-03-23T10:08:55;18.67;;;10.00;;
71679;SDS011;59512;42.662;23.254;2024-03-23T10:11:21;15.13;;;9.50;;
71679;SDS011;59512;42.662;23.254;2024-03-23T10:13:50;17.92;;;9.68;;
71679;SDS011;59512;42.662;23.254;2024-03-23T10:16:24;16.80;;;9.13;;
71679;SDS011;59512;42.662;23.254;2024-03-23T10:18:49;17.95;;;9.38;;
71679;SDS011;59512;42.662;23.254;2024-03-23T10:21:15;19.00;;;9.95;;
71679;SDS011;59512;42.662;23.254;2024-03-23T10:23:41;16.97;;;9.20;;
71679;SDS011;59512;42.662;23.254;2024-03-23T10:28:56;14.18;;;7.82;;
71679;SDS011;59512;42.662;23.254;2024-03-23T10:31:26;19.30;;;8.75;;
71679;SDS011;59512;42.662;23.254;2024-03-23T10:33:55;17.20;;;8.40;;
71679;SDS011;59512;42.662;23.254;2024-03-23T10:36:21;15.20;;;8.80;;
71679;SDS011;59512;42.662;23.254;2024-03-23T10:38:47;17.98;;;8.88;;
71679;SDS011;59512;42.662;23.254;2024-03-23T10:41:15;16.88;;;8.07;;
71679;SDS011;59512;42.662;23.254;2024-03-23T10:43:40;15.47;;;8.90;;
71679;SDS011;59512;42.662;23.254;2024-03-23T10:46:05;17.03;;;9.07;;
71679;SDS011;59512;42.662;23.254;2024-03-23T10:48:32;16.00;;;8.30;;
71679;SDS011;59512;42.662;23.254;2024-03-23T10:50:58;16.35;;;8.57;;
71679;SDS011;59512;42.662;23.254;2024-03-23T10:53:25;17.73;;;8.40;;
71679;SDS011;59512;42.662;23.254;2024-03-23T10:55:52;14.35;;;7.90;;
71679;SDS011;59512;42.662;23.254;2024-03-23T10:58:18;14.63;;;7.63;;
71679;SDS011;59512;42.662;23.254;2024-03-23T11:00:56;15.67;;;8.30;;
71679;SDS011;59512;42.662;23.254;2024-03-23T11:05:58;15.20;;;8.10;;
71679;SDS011;59512;42.662;23.254;2024-03-23T11:08:57;14.40;;;8.07;;
71679;SDS011;59512;42.662;23.254;2024-03-23T11:13:47;12.50;;;7.17;;
71679;SDS011;59512;42.662;23.254;2024-03-23T11:16:14;14.52;;;7.65;;
71679;SDS011;59512;42.662;23.254;2024-03-23T11:18:41;14.02;;;8.05;;
71679;SDS011;59512;42.662;23.254;2024-03-23T11:21:07;13.88;;;8.13;;
71679;SDS011;59512;42.662;23.254;2024-03-23T11:23:33;13.90;;;7.70;;
71679;SDS011;59512;42.662;23.254;2024-03-23T11:25:58;16.03;;;8.07;;
71679;SDS011;59512;42.662;23.254;2024-03-23T11:28:23;8.03;;;3.97;;
71679;SDS011;59512;42.662;23.254;2024-03-23T11:30:49;6.70;;;3.53;;
71679;SDS011;59512;42.662;23.254;2024-03-23T11:33:14;7.13;;;3.20;;
71679;SDS011;59512;42.662;23.254;2024-03-23T11:35:40;9.27;;;4.25;;
71679;SDS011;59512;42.662;23.254;2024-03-23T11:38:16;6.13;;;3.13;;
71679;SDS011;59512;42.662;23.254;2024-03-23T11:40:50;9.90;;;5.17;;
71679;SDS011;59512;42.662;23.254;2024-03-23T11:43:16;6.80;;;2.88;;
71679;SDS011;59512;42.662;23.254;2024-03-23T11:45:47;5.72;;;2.70;;
71679;SDS011;59512;42.662;23.254;2024-03-23T11:48:21;8.48;;;3.08;;
71679;SDS011;59512;42.662;23.254;2024-03-23T11:50:49;7.65;;;2.60;;
71679;SDS011;59512;42.662;23.254;2024-03-23T11:53:19;5.73;;;2.60;;
71679;SDS011;59512;42.662;23.254;2024-03-23T11:55:49;6.78;;;2.45;;
71679;SDS011;59512;42.662;23.254;2024-03-23T11:58:17;5.75;;;2.25;;
71679;SDS011;59512;42.662;23.254;2024-03-23T12:01:10;5.43;;;2.13;;
71679;SDS011;59512;42.662;23.254;2024-03-23T12:03:35;5.45;;;1.70;;
71679;SDS011;59512;42.662;23.254;2024-03-23T12:06:01;5.03;;;1.97;;
71679;SDS011;59512;42.662;23.254;2024-03-23T12:08:34;5.43;;;2.00;;
71679;SDS011;59512;42.662;23.254;2024-03-23T12:11:15;5.35;;;1.45;;
71679;SDS011;59512;42.662;23.254;2024-03-23T12:13:43;5.43;;;1.20;;
71679;SDS011;59512;42.662;23.254;2024-03-23T12:16:16;4.70;;;1.80;;
71679;SDS011;59512;42.662;23.254;2024-03-23T12:18:43;5.97;;;2.15;;
71679;SDS011;59512;42.662;23.254;2024-03-23T12:21:09;5.78;;;2.08;;
71679;SDS011;59512;42.662;23.254;2024-03-23T12:23:35;3.83;;;1.27;;
71679;SDS011;59512;42.662;23.254;2024-03-23T12:26:05;5.25;;;1.50;;
71679;SDS011;59512;42.662;23.254;2024-03-23T12:28:31;5.17;;;1.77;;
71679;SDS011;59512;42.662;23.254;2024-03-23T12:30:57;5.85;;;2.00;;
71679;SDS011;59512;42.662;23.254;2024-03-23T12:33:23;4.90;;;1.80;;
71679;SDS011;59512;42.662;23.254;2024-03-23T12:35:48;4.03;;;1.37;;
71679;SDS011;59512;42.662;23.254;2024-03-23T12:38:15;6.15;;;1.80;;
71679;SDS011;59512;42.662;23.254;2024-03-23T12:40:40;7.73;;;1.93;;
71679;SDS011;59512;42.662;23.254;2024-03-23T12:43:06;5.10;;;1.57;;
71679;SDS011;59512;42.662;23.254;2024-03-23T12:45:32;5.18;;;1.90;;
71679;SDS011;59512;42.662;23.254;2024-03-23T12:47:58;5.80;;;1.80;;
71679;SDS011;59512;42.662;23.254;2024-03-23T12:50:23;7.17;;;1.60;;
71679;SDS011;59512;42.662;23.254;2024-03-23T12:52:49;5.10;;;1.60;;
71679;SDS011;59512;42.662;23.254;2024-03-23T12:55:14;6.70;;;1.90;;
71679;SDS011;59512;42.662;23.254;2024-03-23T12:57:40;5.80;;;1.87;;
71679;SDS011;59512;42.662;23.254;2024-03-23T13:00:08;5.45;;;1.90;;
71679;SDS011;59512;42.662;23.254;2024-03-23T13:02:37;5.55;;;1.70;;
71679;SDS011;59512;42.662;23.254;2024-03-23T13:05:04;5.68;;;1.65;;
71679;SDS011;59512;42.662;23.254;2024-03-23T13:07:29;5.07;;;1.80;;
71679;SDS011;59512;42.662;23.254;2024-03-23T13:09:55;5.28;;;1.75;;
71679;SDS011;59512;42.662;23.254;2024-03-23T13:12:24;4.57;;;1.70;;
71679;SDS011;59512;42.662;23.254;2024-03-23T13:14:50;5.53;;;1.63;;
71679;SDS011;59512;42.662;23.254;2024-03-23T13:17:15;6.70;;;1.80;;
71679;SDS011;59512;42.662;23.254;2024-03-23T13:19:44;6.35;;;2.03;;
71679;SDS011;59512;42.662;23.254;2024-03-23T13:22:12;6.33;;;1.70;;
71679;SDS011;59512;42.662;23.254;2024-03-23T13:24:38;4.78;;;1.50;;
71679;SDS011;59512;42.662;23.254;2024-03-23T13:27:09;5.33;;;1.77;;
71679;SDS011;59512;42.662;23.254;2024-03-23T13:29:35;4.82;;;1.70;;
71679;SDS011;59512;42.662;23.254;2024-03-23T13:32:02;5.60;;;1.92;;
71679;SDS011;59512;42.662;23.254;2024-03-23T13:34:31;5.15;;;1.80;;
71679;SDS011;59512;42.662;23.254;2024-03-23T13:37:04;6.70;;;2.05;;
71679;SDS011;59512;42.662;23.254;2024-03-23T13:39:32;4.72;;;1.75;;
71679;SDS011;59512;42.662;23.254;2024-03-23T13:41:57;8.07;;;2.10;;
71679;SDS011;59512;42.662;23.254;2024-03-23T13:47:31;5.20;;;1.95;;
71679;SDS011;59512;42.662;23.254;2024-03-23T13:49:57;6.50;;;2.10;;
71679;SDS011;59512;42.662;23.254;2024-03-23T13:52:22;5.33;;;1.83;;
71679;SDS011;59512;42.662;23.254;2024-03-23T13:54:52;6.22;;;2.10;;
71679;SDS011;59512;42.662;23.254;2024-03-23T13:57:19;5.85;;;2.20;;
71679;SDS011;59512;42.662;23.254;2024-03-23T13:59:46;5.27;;;2.13;;
71679;SDS011;59512;42.662;23.254;2024-03-23T14:02:13;6.35;;;2.00;;
71679;SDS011;59512;42.662;23.254;2024-03-23T14:04:41;5.28;;;2.22;;
71679;SDS011;59512;42.662;23.254;2024-03-23T14:07:06;5.57;;;2.30;;
71679;SDS011;59512;42.662;23.254;2024-03-23T14:09:34;5.10;;;2.13;;
71679;SDS011;59512;42.662;23.254;2024-03-23T14:11:59;5.15;;;2.13;;
71679;SDS011;59512;42.662;23.254;2024-03-23T14:14:25;7.27;;;2.77;;
71679;SDS011;59512;42.662;23.254;2024-03-23T14:16:51;7.63;;;3.03;;
71679;SDS011;59512;42.662;23.254;2024-03-23T14:19:16;6.40;;;2.70;;
71679;SDS011;59512;42.662;23.254;2024-03-23T14:21:41;4.93;;;2.37;;
71679;SDS011;59512;42.662;23.254;2024-03-23T14:24:07;5.67;;;2.67;;
71679;SDS011;59512;42.662;23.254;2024-03-23T14:26:34;5.97;;;2.65;;
71679;SDS011;59512;42.662;23.254;2024-03-23T14:29:00;8.55;;;2.33;;
71679;SDS011;59512;42.662;23.254;2024-03-23T14:31:25;7.20;;;2.70;;
71679;SDS011;59512;42.662;23.254;2024-03-23T14:33:51;5.93;;;2.60;;
71679;SDS011;59512;42.662;23.254;2024-03-23T14:36:16;7.33;;;2.93;;
71679;SDS011;59512;42.662;23.254;2024-03-23T14:38:48;7.60;;;3.50;;
71679;SDS011;59512;42.662;23.254;2024-03-23T14:41:14;8.07;;;3.20;;
71679;SDS011;59512;42.662;23.254;2024-03-23T14:43:39;6.43;;;3.20;;
71679;SDS011;59512;42.662;23.254;2024-03-23T14:48:37;5.97;;;2.80;;
71679;SDS011;59512;42.662;23.254;2024-03-23T14:51:03;7.35;;;2.85;;
71679;SDS011;59512;42.662;23.254;2024-03-23T14:53:33;7.80;;;3.10;;
71679;SDS011;59512;42.662;23.254;2024-03-23T14:56:00;6.82;;;2.90;;
71679;SDS011;59512;42.662;23.254;2024-03-23T14:58:26;6.03;;;2.83;;
71679;SDS011;59512;42.662;23.254;2024-03-23T15:00:52;6.37;;;2.57;;
71679;SDS011;59512;42.662;23.254;2024-03-23T15:03:17;7.93;;;2.83;;
71679;SDS011;59512;42.662;23.254;2024-03-23T15:05:55;7.53;;;3.00;;
71679;SDS011;59512;42.662;23.254;2024-03-23T15:08:24;7.50;;;3.00;;
71679;SDS011;59512;42.662;23.254;2024-03-23T15:10:49;6.25;;;2.58;;
71679;SDS011;59512;42.662;23.254;2024-03-23T15:13:16;6.00;;;2.50;;
71679;SDS011;59512;42.662;23.254;2024-03-23T15:15:41;6.60;;;2.70;;
71679;SDS011;59512;42.662;23.254;2024-03-23T15:18:09;5.63;;;2.35;;
71679;SDS011;59512;42.662;23.254;2024-03-23T15:20:35;6.13;;;2.80;;
71679;SDS011;59512;42.662;23.254;2024-03-23T15:23:02;7.72;;;3.10;;
71679;SDS011;59512;42.662;23.254;2024-03-23T15:25:27;8.20;;;3.10;;
71679;SDS011;59512;42.662;23.254;2024-03-23T15:27:53;8.05;;;2.88;;
71679;SDS011;59512;42.662;23.254;2024-03-23T15:30:19;6.97;;;3.07;;
71679;SDS011;59512;42.662;23.254;2024-03-23T15:32:45;7.30;;;3.13;;